createdAt,value
2023-04-19T00:03:35.067Z,6.75
2023-04-19T00:08:38.091Z,6.45
2023-04-19T00:13:42.502Z,5.83
2023-04-19T00:23:48.141Z,6.20
2023-04-19T00:28:52.332Z,5.82
2023-04-19T00:33:55.480Z,6.60
2023-04-19T00:38:58.160Z,7.05
2023-04-19T00:44:02.520Z,6.95
2023-04-19T00:54:08.208Z,7.20
2023-04-19T00:59:12.497Z,6.68
2023-04-19T01:04:15.616Z,7.70
2023-04-19T01:09:18.441Z,7.75
2023-04-19T01:14:22.487Z,7.57
2023-04-19T01:19:25.608Z,7.63
2023-04-19T01:24:30.403Z,6.38
2023-04-19T01:29:32.934Z,7.15
2023-04-19T01:34:37.032Z,8.20
2023-04-19T01:39:41.672Z,7.53
2023-04-19T01:44:45.549Z,7.63
2023-04-19T01:49:48.140Z,8.73
2023-04-19T01:54:52.345Z,8.52
2023-04-19T01:59:54.974Z,9.27
2023-04-19T02:04:58.538Z,8.73
2023-04-19T02:10:03.454Z,9.10
2023-04-19T02:15:06.511Z,9.07
2023-04-19T02:20:09.978Z,9.30
2023-04-19T02:25:16.785Z,10.25
2023-04-19T02:30:20.260Z,10.05
2023-04-19T02:35:23.590Z,10.48
2023-04-19T02:40:27.760Z,11.48
2023-04-19T02:45:30.717Z,11.75
2023-04-19T02:50:33.671Z,11.20
2023-04-19T02:55:37.854Z,12.32
2023-04-19T03:00:40.706Z,12.07
2023-04-19T03:05:43.637Z,11.33
2023-04-19T03:10:47.606Z,12.10
2023-04-19T03:15:50.324Z,11.95
2023-04-19T03:20:53.186Z,13.82
2023-04-19T03:25:57.493Z,12.80
2023-04-19T03:31:01.003Z,12.98
2023-04-19T03:36:04.625Z,13.98
2023-04-19T03:41:18.795Z,12.15
2023-04-19T03:46:21.715Z,12.57
2023-04-19T03:51:24.785Z,13.70
2023-04-19T03:56:29.274Z,12.93
2023-04-19T04:01:32.907Z,12.95
2023-04-19T04:06:36.126Z,12.65
2023-04-19T04:11:40.124Z,11.95
2023-04-19T04:21:45.763Z,13.55
2023-04-19T04:26:51.514Z,12.60
2023-04-19T04:31:55.052Z,13.23
2023-04-19T04:36:57.621Z,12.15
2023-04-19T04:42:01.499Z,12.93
2023-04-19T04:47:09.665Z,12.13
2023-04-19T04:52:12.318Z,12.95
2023-04-19T04:57:18.195Z,13.13
2023-04-19T05:02:22.669Z,13.23
2023-04-19T05:07:28.133Z,12.07
2023-04-19T05:12:34.689Z,12.65
2023-04-19T05:17:37.276Z,12.98
2023-04-19T05:22:40.115Z,12.32
2023-04-19T05:27:44.995Z,12.77
2023-04-19T05:32:48.033Z,13.77
2023-04-19T05:37:50.752Z,12.35
2023-04-19T05:42:54.722Z,12.45
2023-04-19T05:52:59.919Z,10.70
2023-04-19T05:58:03.919Z,11.77
2023-04-19T06:03:07.276Z,12.25
2023-04-19T06:08:10.440Z,12.02
2023-04-19T06:13:16.154Z,11.75
2023-04-19T06:18:20.332Z,11.50
2023-04-19T06:23:24.067Z,11.88
2023-04-19T06:28:28.416Z,11.33
2023-04-19T06:33:31.282Z,11.38
2023-04-19T06:38:34.666Z,11.60
2023-04-19T06:43:40.635Z,11.13
2023-04-19T06:48:44.444Z,11.43
2023-04-19T06:53:47.416Z,11.65
2023-04-19T06:58:51.856Z,10.77
2023-04-19T07:09:00.444Z,11.13
2023-04-19T07:14:04.843Z,10.80
2023-04-19T07:24:11.107Z,11.60
2023-04-19T07:29:16.715Z,10.73
2023-04-19T07:34:19.267Z,11.15
2023-04-19T07:39:25.026Z,10.95
2023-04-19T07:44:29.834Z,9.60
2023-04-19T07:49:34.342Z,10.82
2023-04-19T07:59:43.422Z,10.50
2023-04-19T08:04:48.355Z,9.93
2023-04-19T08:09:51.860Z,10.68
2023-04-19T08:15:07.390Z,11.07
2023-04-19T08:20:17.856Z,10.75
2023-04-19T08:25:21.305Z,10.98
2023-04-19T08:30:25.601Z,10.90
2023-04-19T08:35:38.766Z,10.75
2023-04-19T08:45:47.605Z,10.65
2023-04-19T08:51:04.379Z,9.50
2023-04-19T08:56:17.966Z,10.55
2023-04-19T09:01:36.113Z,9.73
2023-04-19T09:06:40.293Z,6.93
2023-04-19T09:11:44.137Z,10.88
2023-04-19T09:16:48.472Z,10.95
2023-04-19T09:21:53.115Z,10.63
2023-04-19T09:26:57.889Z,9.13
2023-04-19T09:32:02.758Z,10.32
2023-04-19T09:37:29.664Z,10.18
2023-04-19T09:43:05.472Z,9.60
2023-04-19T09:48:10.087Z,9.18
2023-04-19T09:53:14.339Z,9.20
2023-04-19T09:58:17.495Z,9.70
2023-04-19T10:03:23.917Z,8.88
2023-04-19T10:08:35.978Z,9.65
2023-04-19T10:13:38.784Z,10.20
2023-04-19T10:18:43.929Z,10.40
2023-04-19T10:23:47.274Z,10.30
2023-04-19T10:28:50.040Z,9.40
2023-04-19T10:33:54.190Z,10.90
2023-04-19T10:38:57.156Z,10.98
2023-04-19T10:44:13.062Z,10.80
2023-04-19T10:49:17.191Z,10.43
2023-04-19T10:54:31.595Z,8.38
2023-04-19T10:59:35.644Z,10.27
2023-04-19T11:05:01.190Z,9.40
2023-04-19T11:10:03.853Z,9.95
2023-04-19T11:15:09.362Z,10.68
2023-04-19T11:20:16.002Z,10.23
2023-04-19T11:25:20.850Z,9.63
2023-04-19T11:30:30.288Z,9.18
2023-04-19T11:35:41.463Z,10.32
2023-04-19T11:40:44.736Z,9.38
2023-04-19T11:45:47.351Z,9.05
2023-04-19T11:50:51.568Z,10.47
2023-04-19T12:00:58.272Z,10.25
2023-04-19T12:06:04.935Z,11.30
2023-04-19T12:11:07.768Z,12.05
2023-04-19T12:16:10.662Z,12.02
2023-04-19T12:21:27.193Z,11.85
2023-04-19T12:26:30.847Z,12.98
2023-04-19T12:31:35.637Z,12.73
2023-04-19T12:36:39.881Z,8.93
2023-04-19T12:46:45.205Z,8.00
2023-04-19T12:51:49.500Z,6.85
2023-04-19T13:01:54.425Z,6.22
2023-04-19T13:06:58.489Z,5.75
2023-04-19T13:12:11.261Z,5.82
2023-04-19T13:17:14.466Z,5.60
2023-04-19T13:22:19.178Z,5.28
2023-04-19T13:27:22.126Z,5.78
2023-04-19T13:32:25.519Z,5.32
2023-04-19T13:37:29.775Z,4.90
2023-04-19T13:42:32.328Z,6.22
2023-04-19T13:47:34.915Z,3.83
2023-04-19T13:52:38.930Z,3.38
2023-04-19T14:02:44.925Z,4.13
2023-04-19T14:07:48.920Z,3.00
2023-04-19T14:12:52.924Z,2.30
2023-04-19T14:17:55.843Z,2.30
2023-04-19T14:23:00.308Z,2.60
2023-04-19T14:28:13.367Z,2.47
2023-04-19T14:33:16.232Z,1.70
2023-04-19T14:38:20.949Z,3.13
2023-04-19T14:43:23.448Z,3.10
2023-04-19T14:48:26.431Z,3.67
2023-04-19T14:53:32.312Z,3.25
2023-04-19T14:58:36.167Z,2.63
2023-04-19T15:03:38.988Z,3.72
2023-04-19T15:08:43.872Z,3.80
2023-04-19T15:13:47.280Z,3.30
2023-04-19T15:18:50.387Z,3.63
2023-04-19T15:23:54.616Z,4.13
2023-04-19T15:28:57.296Z,4.47
2023-04-19T15:34:02.065Z,3.75
2023-04-19T15:39:06.175Z,3.55
2023-04-19T15:44:09.520Z,3.75
2023-04-19T15:49:12.446Z,4.18
2023-04-19T15:54:16.457Z,4.03
2023-04-19T16:04:21.686Z,3.53
2023-04-19T16:09:26.821Z,3.10
2023-04-19T16:19:32.799Z,3.08
2023-04-19T16:24:36.882Z,2.83
2023-04-19T16:34:43.614Z,3.38
2023-04-19T16:39:48.272Z,1.90
2023-04-19T16:44:50.997Z,2.35
2023-04-19T16:49:56.206Z,3.17
2023-04-19T16:55:03.327Z,2.47
2023-04-19T17:05:17.497Z,1.17
2023-04-19T17:10:21.394Z,3.28
2023-04-19T17:15:26.386Z,2.33
2023-04-19T17:20:29.822Z,2.83
2023-04-19T17:25:34.648Z,2.92
2023-04-19T17:30:37.225Z,4.60
2023-04-19T17:35:39.758Z,4.28
2023-04-19T17:40:43.657Z,5.47
2023-04-19T17:45:46.320Z,2.55
2023-04-19T17:50:49.070Z,2.03
2023-04-19T17:55:53.148Z,2.47
2023-04-19T18:00:56.268Z,3.42
2023-04-19T18:05:59.015Z,2.58
2023-04-19T18:11:03.144Z,3.38
2023-04-19T18:16:06.099Z,5.80
2023-04-19T18:21:09.382Z,1.63
2023-04-19T18:26:13.476Z,3.47
2023-04-19T18:31:16.516Z,2.30
2023-04-19T18:36:20.336Z,2.53
2023-04-19T18:41:24.751Z,1.92
2023-04-19T18:46:27.823Z,3.97
2023-04-19T18:51:32.074Z,2.03
2023-04-19T19:01:45.065Z,4.65
2023-04-19T19:06:48.317Z,3.38
2023-04-19T19:11:56.539Z,2.55
2023-04-19T19:17:00.465Z,3.63
2023-04-19T19:22:12.058Z,3.75
2023-04-19T19:27:23.845Z,1.00
2023-04-19T19:32:26.478Z,2.30
2023-04-19T19:37:29.237Z,1.08
2023-04-19T19:42:42.696Z,2.83
2023-04-19T19:47:49.332Z,2.80
2023-04-19T19:52:53.115Z,3.33
2023-04-19T20:03:04.089Z,3.30
2023-04-19T20:08:11.850Z,2.50
2023-04-19T20:13:21.137Z,2.35
2023-04-19T20:18:24.801Z,2.40
2023-04-19T20:23:27.892Z,2.78
2023-04-19T20:28:33.587Z,2.75
2023-04-19T20:33:36.316Z,3.22
2023-04-19T20:38:39.698Z,3.58
2023-04-19T20:43:43.730Z,4.07
2023-04-19T20:48:46.296Z,3.58
2023-04-19T20:53:50.081Z,1.02
2023-04-19T20:58:53.998Z,2.55
2023-04-19T21:03:56.745Z,2.92
2023-04-19T21:08:59.341Z,2.20
2023-04-19T21:14:03.320Z,2.58
2023-04-19T21:19:07.342Z,2.58
2023-04-19T21:24:09.997Z,2.33
2023-04-19T21:29:14.061Z,3.05
2023-04-19T21:34:22.613Z,3.55
2023-04-19T21:39:25.584Z,3.78
2023-04-19T21:44:30.308Z,3.38
2023-04-19T21:49:33.615Z,3.58
2023-04-19T21:54:36.213Z,3.88
2023-04-19T21:59:40.213Z,3.90
2023-04-19T22:04:53.743Z,3.75
2023-04-19T22:09:56.899Z,3.70
2023-04-19T22:15:02.227Z,3.70
2023-04-19T22:20:08.526Z,3.90
2023-04-19T22:25:11.482Z,3.65
2023-04-19T22:30:16.589Z,4.28
2023-04-19T22:35:22.571Z,5.07
2023-04-19T22:40:30.790Z,6.75
2023-04-19T22:45:35.125Z,7.85
2023-04-19T22:55:40.766Z,9.75
2023-04-19T23:00:44.623Z,9.88
2023-04-19T23:05:57.805Z,9.93
2023-04-19T23:11:01.042Z,10.15
2023-04-19T23:16:06.598Z,9.75
2023-04-19T23:21:09.246Z,11.02
2023-04-19T23:26:12.027Z,12.10
2023-04-19T23:31:16.227Z,11.32
2023-04-19T23:36:18.938Z,12.70
2023-04-19T23:41:22.042Z,11.18
2023-04-19T23:46:26.241Z,10.63
2023-04-19T23:56:31.676Z,8.68
